| Record Date MM/DD/YYYY | Record Time HH:MM:SS | Record Julian Date NNN day of the year | Air Temperature Max (Degrees Fahrenheit F) | Time Max Air Temperature HH:MM:SS This is the time of max air temp for the prior hour interval listed for record [Time]. | Air Temperature Min (Degrees Fahrenheit F) | Time Min Air Temperature HH:MM:SS This is the time of min air temp for the prior hour interval listed for record [Time]. | Air Temperature Observed (Degrees Fahrenheit F) This is an instantaneous reading at the record [Time]. | Relative Humidity Max (Percent) | Time Max Relative Humidity HH:MM:SS This is the time of max relative humidity for the prior hour interval listed for record [Time]. | Relative Humidity Min (Percent) | Time Min Relative Humidity HH:MM:SS This is the time of min relative humidity for the prior hour interval listed for record [Time]. | Relative Humidity Observed (Percent) This is an instantaneous reading at the record [Time]. | Precipitation (Inches n.nn) rain fall that occurred during the prior hour interval listed for record [Time]. | Wind Speed (Miles Per Hour) Resultant Speed that occurred during the prior hour interval listed for record [Time]. | Wind Direction (Degrees) Resultant Direction that occurred during the prior hour interval listed for record [Time]. | Solar Radiation (Langley's) that occurred during the prior hour interval listed for record [Time]. | Soil Temperature Average at 2 inch depth (Degrees Fahrenheit F) that occurred during the prior hour interval listed for record [Time]. | Soil Temperature Observed at 2 inch depth (Degrees Fahrenheit F) This is an instantaneous reading at the record [Time]. | Soil Temperature Average at 4 inch depth (Degrees Fahrenheit F) that occurred during the prior hour interval listed for record [Time]. | Soil Temperature Observed at 4 inch depth (Degrees Fahrenheit F) This is an instantaneous reading at the record [Time]. |
|---|---|---|---|---|---|---|---|---|---|---|---|---|---|---|---|---|---|---|---|---|
| 04/29/2026 | 0:00:00 | 119 | 72 | 23:00:01 | 71 | 23:28:02 | 72 | 94 | 23:52:01 | 92 | 23:02:03 | 93.6 | 0 | 1.9 | 186 | 0 | 73 | 73 | 73 | 73 |
| 04/29/2026 | 1:00:00 | 119 | 72 | 0:02:03 | 71 | 0:49:03 | 71 | 94 | 0:56:04 | 93 | 0:18:05 | 94.2 | 0 | 2.9 | 176 | 0 | 73 | 73 | 73 | 73 |
| 04/29/2026 | 2:00:00 | 119 | 71 | 1:00:01 | 70 | 1:36:05 | 70 | 95 | 1:57:03 | 94 | 1:16:03 | 94.7 | 0 | 2.1 | 188 | 0 | 73 | 73 | 73 | 73 |
| 04/29/2026 | 3:00:00 | 119 | 70 | 2:00:01 | 70 | 2:56:04 | 70 | 95 | 2:37:01 | 95 | 2:01:05 | 95.2 | 0 | 1.8 | 163 | 0 | 73 | 73 | 73 | 73 |
| 04/29/2026 | 4:00:00 | 119 | 70 | 3:18:03 | 69 | 3:58:05 | 69 | 96 | 3:52:04 | 95 | 3:01:03 | 95.5 | 0 | 1.2 | 155 | 0 | 73 | 73 | 73 | 73 |
| 04/29/2026 | 5:00:00 | 119 | 69 | 4:34:00 | 68 | 4:24:00 | 69 | 96 | 4:59:05 | 95 | 4:19:04 | 96 | 0 | 0.8 | 169 | 0 | 72 | 72 | 73 | 73 |
| 04/29/2026 | 6:00:00 | 119 | 70 | 5:59:02 | 69 | 5:02:04 | 70 | 96 | 5:56:02 | 96 | 5:02:04 | 96.2 | 0 | 0.6 | 173 | 1 | 72 | 72 | 72 | 72 |
| 04/29/2026 | 7:00:00 | 119 | 72 | 6:59:02 | 70 | 6:00:01 | 72 | 96 | 6:19:02 | 95 | 6:56:01 | 95.7 | 0 | 1.2 | 196 | 10 | 72 | 72 | 72 | 72 |
| 04/29/2026 | 8:00:00 | 119 | 76 | 7:58:00 | 72 | 7:02:02 | 76 | 96 | 7:00:03 | 85 | 8:00:00 | 85.1 | 0 | 2.9 | 201 | 26 | 73 | 73 | 72 | 72 |
| 04/29/2026 | 9:00:00 | 119 | 80 | 8:57:04 | 76 | 8:04:05 | 79 | 87 | 8:09:01 | 71 | 8:59:04 | 71.08 | 0 | 3.9 | 237 | 38 | 73 | 73 | 73 | 73 |
| 04/29/2026 | 10:00:00 | 119 | 82 | 9:43:01 | 79 | 9:00:00 | 81 | 75 | 9:01:00 | 61 | 9:43:05 | 65.16 | 0 | 4.9 | 218 | 62 | 74 | 74 | 73 | 73 |
| 04/29/2026 | 11:00:00 | 119 | 84 | 10:59:05 | 81 | 10:00:00 | 84 | 68 | 10:04:03 | 57 | 10:45:05 | 62.37 | 0 | 4.7 | 200 | 71 | 74 | 75 | 73 | 73 |
| 04/29/2026 | 12:00:00 | 119 | 85 | 11:33:03 | 83 | 11:15:01 | 84 | 66 | 11:17:00 | 55 | 11:41:01 | 58.45 | 0 | 4.8 | 204 | 76 | 75 | 76 | 74 | 74 |
| 04/29/2026 | 13:00:00 | 119 | 88 | 12:54:03 | 84 | 12:07:03 | 87 | 62 | 12:01:03 | 50 | 12:59:04 | 52.06 | 0 | 5.5 | 198 | 79 | 76 | 77 | 74 | 75 |
| 04/29/2026 | 14:00:00 | 119 | 87 | 13:18:04 | 85 | 13:28:02 | 86 | 58 | 13:30:01 | 49 | 13:45:04 | 52.86 | 0 | 5.9 | 197 | 66 | 77 | 77 | 75 | 75 |
| 04/29/2026 | 15:00:00 | 119 | 86 | 14:01:02 | 82 | 15:00:00 | 82 | 62 | 14:50:01 | 53 | 14:00:00 | 61.16 | 0 | 5.4 | 199 | 30 | 77 | 77 | 75 | 75 |
| 04/29/2026 | 16:00:00 | 119 | 82 | 15:00:00 | 80 | 15:59:04 | 80 | 69 | 15:59:05 | 61 | 15:00:00 | 69.34 | 0 | 3.7 | 179 | 5 | 77 | 76 | 75 | 75 |
| 04/29/2026 | 17:00:00 | 119 | 80 | 16:00:01 | 71 | 17:00:00 | 71 | 78 | 16:59:05 | 68 | 16:54:03 | 77.99 | 0 | 3.6 | 192 | 1 | 76 | 76 | 75 | 75 |
| 04/29/2026 | 18:00:00 | 119 | 71 | 17:00:00 | 66 | 17:56:01 | 67 | 94 | 17:57:05 | 78 | 17:00:00 | 93.6 | 0.44 | 5.4 | 44 | 0 | 75 | 74 | 75 | 75 |
| 04/29/2026 | 19:00:00 | 119 | 67 | 18:05:01 | 66 | 18:55:03 | 66 | 94 | 18:59:03 | 93 | 18:33:01 | 94.3 | 0.98 | 4.4 | 29 | 0 | 73 | 72 | 74 | 73 |
| 04/29/2026 | 20:00:00 | 119 | 66 | 19:52:01 | 66 | 19:07:00 | 66 | 95 | 19:49:05 | 94 | 19:07:00 | 94.6 | 0.24 | 4.6 | 117 | 0 | 72 | 72 | 72 | 72 |
| 04/29/2026 | 21:00:00 | 119 | 66 | 20:15:00 | 66 | 20:58:02 | 66 | 95 | 20:09:03 | 94 | 20:42:04 | 94.4 | 0.46 | 5.2 | 125 | 0 | 72 | 71 | 72 | 72 |
| 04/29/2026 | 22:00:00 | 119 | 66 | 21:42:01 | 66 | 21:01:03 | 66 | 95 | 21:59:02 | 94 | 21:00:03 | 95.2 | 0.24 | 2.9 | 147 | 0 | 71 | 71 | 72 | 71 |
| 04/29/2026 | 23:00:00 | 119 | 66 | 22:56:03 | 66 | 22:01:00 | 66 | 96 | 22:57:05 | 95 | 22:01:00 | 95.7 | 0.14 | 4.2 | 169 | 0 | 71 | 71 | 71 | 71 |
| 04/30/2026 | 0:00:00 | 120 | 66 | 23:10:03 | 66 | 23:54:05 | 66 | 96 | 23:10:04 | 95 | 23:31:00 | 95.5 | 0.01 | 2.6 | 266 | 0 | 71 | 71 | 71 | 71 |
| 04/30/2026 | 1:00:00 | 120 | 66 | 0:09:03 | 66 | 0:26:03 | 66 | 96 | 0:56:04 | 95 | 0:12:02 | 95.8 | 0.02 | 1.8 | 299 | 0 | 71 | 71 | 71 | 71 |
| 04/30/2026 | 2:00:00 | 120 | 66 | 1:35:00 | 66 | 1:00:00 | 66 | 96 | 1:54:04 | 96 | 1:05:02 | 95.8 | 0.05 | 2.6 | 273 | 0 | 71 | 71 | 71 | 71 |
| 04/30/2026 | 3:00:00 | 120 | 66 | 2:54:00 | 66 | 2:05:03 | 66 | 96 | 2:07:00 | 95 | 2:58:03 | 94.8 | 0.03 | 3.4 | 175 | 0 | 71 | 71 | 71 | 71 |
| 04/30/2026 | 4:00:00 | 120 | 67 | 3:02:04 | 65 | 3:59:01 | 65 | 95 | 3:58:03 | 94 | 3:11:00 | 95 | 0.01 | 1.3 | 222 | 0 | 71 | 71 | 71 | 71 |
| 04/30/2026 | 5:00:00 | 120 | 66 | 4:19:01 | 65 | 4:55:02 | 65 | 96 | 4:34:04 | 95 | 4:00:05 | 95.6 | 0 | 3.4 | 329 | 0 | 71 | 71 | 71 | 71 |
| 04/30/2026 | 6:00:00 | 120 | 66 | 5:42:02 | 65 | 5:09:05 | 66 | 96 | 5:54:04 | 96 | 5:01:02 | 96 | 0 | 3.4 | 342 | 1 | 71 | 71 | 71 | 71 |
| 04/30/2026 | 7:00:00 | 120 | 67 | 6:57:03 | 66 | 6:02:03 | 67 | 96 | 6:22:05 | 95 | 6:59:04 | 95.3 | 0 | 3.8 | 8 | 6 | 71 | 71 | 71 | 71 |
| 04/30/2026 | 8:00:00 | 120 | 67 | 7:43:00 | 67 | 7:00:00 | 67 | 95 | 7:00:02 | 94 | 7:43:05 | 94.1 | 0.01 | 2.2 | 20 | 5 | 71 | 71 | 71 | 71 |
| 04/30/2026 | 9:00:00 | 120 | 69 | 9:00:00 | 67 | 8:00:05 | 69 | 95 | 8:35:04 | 93 | 8:57:00 | 93.3 | 0.01 | 2.1 | 37 | 12 | 71 | 71 | 71 | 71 |
| 04/30/2026 | 10:00:00 | 120 | 70 | 9:53:05 | 68 | 9:11:01 | 70 | 93 | 9:06:01 | 90 | 9:59:02 | 89.9 | 0 | 2.6 | 43 | 17 | 71 | 72 | 71 | 71 |
| 04/30/2026 | 11:00:00 | 120 | 72 | 10:46:02 | 70 | 10:00:00 | 71 | 91 | 10:01:01 | 88 | 10:58:03 | 88.5 | 0 | 2.4 | 51 | 19 | 72 | 72 | 71 | 72 |
| 04/30/2026 | 12:00:00 | 120 | 72 | 11:37:00 | 71 | 11:49:01 | 71 | 89 | 11:00:05 | 83 | 11:47:03 | 83.7 | 0 | 3.6 | 41 | 22 | 72 | 72 | 72 | 72 |
| 04/30/2026 | 13:00:00 | 120 | 73 | 12:16:00 | 71 | 12:38:00 | 72 | 85 | 12:59:01 | 81 | 12:24:04 | 83.3 | 0 | 3.6 | 37 | 21 | 72 | 72 | 72 | 72 |
| 04/30/2026 | 14:00:00 | 120 | 73 | 13:30:04 | 72 | 13:11:00 | 73 | 85 | 13:13:03 | 82 | 13:34:01 | 82.9 | 0 | 3.4 | 70 | 20 | 73 | 73 | 72 | 72 |
| 04/30/2026 | 15:00:00 | 120 | 73 | 14:14:04 | 72 | 14:08:01 | 73 | 83 | 14:12:03 | 81 | 14:28:05 | 81.5 | 0 | 3.0 | 55 | 21 | 73 | 73 | 72 | 72 |
| 04/30/2026 | 16:00:00 | 120 | 74 | 15:24:01 | 72 | 15:59:05 | 72 | 85 | 15:59:04 | 80 | 15:20:05 | 84.6 | 0 | 3.0 | 55 | 13 | 73 | 73 | 72 | 72 |
| 04/30/2026 | 17:00:00 | 120 | 72 | 16:00:00 | 69 | 16:57:05 | 69 | 88 | 17:00:00 | 85 | 16:00:00 | 88.4 | 0 | 3.6 | 23 | 4 | 73 | 73 | 72 | 72 |
| 04/30/2026 | 18:00:00 | 120 | 70 | 17:01:02 | 68 | 17:59:00 | 68 | 93 | 17:59:04 | 88 | 17:02:03 | 92.5 | 0.05 | 2.6 | 22 | 1 | 73 | 72 | 72 | 72 |
| 04/30/2026 | 19:00:00 | 120 | 68 | 18:00:00 | 67 | 18:55:04 | 67 | 94 | 18:59:00 | 92 | 18:02:02 | 94.1 | 0.04 | 1.9 | 52 | 0 | 72 | 72 | 72 | 72 |
| 04/30/2026 | 20:00:00 | 120 | 67 | 19:00:04 | 66 | 19:47:04 | 66 | 95 | 19:51:03 | 94 | 19:12:01 | 94.4 | 0 | 3.5 | 42 | 0 | 72 | 72 | 72 | 72 |
| 04/30/2026 | 21:00:00 | 120 | 66 | 20:59:00 | 66 | 20:10:03 | 66 | 94 | 20:00:03 | 94 | 20:20:04 | 94.3 | 0.01 | 2.9 | 52 | 0 | 72 | 72 | 72 | 72 |
| 04/30/2026 | 22:00:00 | 120 | 66 | 21:16:03 | 66 | 21:56:04 | 66 | 94 | 21:04:03 | 94 | 21:40:02 | 94.1 | 0 | 2.9 | 8 | 0 | 72 | 72 | 72 | 72 |
| 04/30/2026 | 23:00:00 | 120 | 66 | 22:00:01 | 64 | 22:57:04 | 64 | 94 | 22:18:01 | 93 | 22:45:03 | 93.4 | 0 | 3.5 | 17 | 0 | 72 | 72 | 72 | 72 |
| 05/01/2026 | 0:00:00 | 121 | 64 | 23:00:01 | 63 | 23:51:01 | 63 | 94 | 23:59:05 | 93 | 23:01:01 | 94.1 | 0 | 3.8 | 10 | 0 | 71 | 71 | 72 | 72 |
| 05/01/2026 | 1:00:00 | 121 | 63 | 0:00:03 | 63 | 0:37:05 | 63 | 94 | 0:41:02 | 94 | 0:11:01 | 94 | 0 | 2.7 | 33 | 0 | 71 | 71 | 72 | 71 |
| 05/01/2026 | 2:00:00 | 121 | 63 | 1:00:04 | 62 | 1:17:02 | 63 | 94 | 1:26:00 | 94 | 1:55:00 | 93.8 | 0 | 2.4 | 22 | 0 | 71 | 71 | 71 | 71 |
| 05/01/2026 | 3:00:00 | 121 | 63 | 2:01:02 | 62 | 2:58:00 | 62 | 94 | 2:57:05 | 94 | 2:12:05 | 94.3 | 0.01 | 3.0 | 49 | 0 | 71 | 71 | 71 | 71 |
| 05/01/2026 | 4:00:00 | 121 | 62 | 3:58:05 | 62 | 3:08:03 | 62 | 95 | 3:31:04 | 94 | 3:01:00 | 94.6 | 0 | 2.2 | 47 | 0 | 71 | 71 | 71 | 71 |
| 05/01/2026 | 5:00:00 | 121 | 62 | 4:02:03 | 62 | 4:57:04 | 62 | 95 | 4:59:02 | 95 | 4:04:05 | 95.2 | 0.04 | 3.5 | 356 | 0 | 71 | 71 | 71 | 71 |
| 05/01/2026 | 6:00:00 | 121 | 62 | 5:01:02 | 61 | 5:46:02 | 61 | 95 | 5:38:00 | 95 | 5:16:00 | 95.3 | 0.03 | 3.9 | 32 | 0 | 71 | 70 | 71 | 71 |
| 05/01/2026 | 7:00:00 | 121 | 61 | 6:13:01 | 61 | 6:50:04 | 61 | 95 | 6:01:05 | 95 | 6:37:02 | 95.2 | 0.02 | 2.8 | 33 | 2 | 70 | 70 | 71 | 71 |
| 05/01/2026 | 8:00:00 | 121 | 61 | 7:57:03 | 61 | 7:32:04 | 61 | 95 | 7:08:00 | 94 | 7:58:03 | 94.3 | 0 | 3.4 | 36 | 6 | 70 | 70 | 71 | 71 |
| 05/01/2026 | 9:00:00 | 121 | 61 | 8:08:02 | 60 | 8:59:00 | 60 | 94 | 8:00:02 | 93 | 8:58:05 | 93.4 | 0 | 4.0 | 20 | 5 | 70 | 70 | 71 | 71 |
| 05/01/2026 | 10:00:00 | 121 | 61 | 9:38:02 | 60 | 9:02:04 | 61 | 94 | 9:00:03 | 92 | 9:36:01 | 91.9 | 0.01 | 3.7 | 27 | 12 | 70 | 70 | 71 | 71 |
| 05/01/2026 | 11:00:00 | 121 | 61 | 10:22:04 | 60 | 10:48:03 | 60 | 93 | 10:58:04 | 91 | 10:07:03 | 93.1 | 0.02 | 4.2 | 27 | 11 | 70 | 70 | 71 | 71 |
| 05/01/2026 | 12:00:00 | 121 | 61 | 11:59:03 | 60 | 11:12:02 | 61 | 94 | 11:40:03 | 92 | 11:46:00 | 92.8 | 0.01 | 4.4 | 24 | 12 | 70 | 70 | 71 | 70 |
| 05/01/2026 | 13:00:00 | 121 | 62 | 12:54:02 | 61 | 12:04:00 | 62 | 93 | 12:00:03 | 89 | 12:49:00 | 89.4 | 0 | 6.0 | 32 | 17 | 70 | 70 | 70 | 70 |
| 05/01/2026 | 14:00:00 | 121 | 62 | 13:00:01 | 58 | 13:59:01 | 58 | 91 | 13:11:03 | 85 | 13:36:04 | 88.3 | 0.01 | 7.1 | 13 | 6 | 70 | 70 | 70 | 70 |
| 05/01/2026 | 15:00:00 | 121 | 58 | 14:00:00 | 56 | 14:36:03 | 56 | 94 | 14:56:04 | 87 | 14:12:02 | 93.7 | 0.54 | 5.2 | 18 | 1 | 69 | 69 | 70 | 70 |
| 05/01/2026 | 16:00:00 | 121 | 56 | 15:00:01 | 54 | 15:58:05 | 54 | 95 | 15:41:04 | 94 | 15:00:05 | 93.9 | 0.5 | 4.8 | 22 | 1 | 68 | 67 | 70 | 69 |
| 05/01/2026 | 17:00:00 | 121 | 54 | 16:13:00 | 53 | 16:59:00 | 53 | 95 | 16:45:02 | 94 | 16:05:02 | 94.7 | 0.22 | 4.9 | 22 | 3 | 67 | 67 | 69 | 68 |
| 05/01/2026 | 18:00:00 | 121 | 53 | 17:08:01 | 53 | 17:59:05 | 53 | 95 | 17:35:02 | 95 | 17:01:04 | 94.9 | 0.08 | 4.2 | 32 | 1 | 67 | 67 | 68 | 68 |
| 05/01/2026 | 19:00:00 | 121 | 53 | 18:08:03 | 53 | 18:21:01 | 53 | 96 | 18:37:01 | 95 | 18:06:00 | 95.2 | 0.09 | 4.4 | 50 | 0 | 67 | 67 | 68 | 68 |
| 05/01/2026 | 20:00:00 | 121 | 53 | 19:39:05 | 53 | 19:54:05 | 53 | 96 | 19:59:02 | 95 | 19:00:03 | 95.7 | 0.18 | 3.3 | 43 | 0 | 67 | 67 | 68 | 68 |
| 05/01/2026 | 21:00:00 | 121 | 53 | 20:48:02 | 53 | 20:38:05 | 53 | 96 | 20:48:02 | 96 | 20:01:03 | 96 | 0.22 | 3.9 | 32 | 0 | 66 | 66 | 68 | 67 |
| 05/01/2026 | 22:00:00 | 121 | 53 | 21:26:05 | 52 | 21:58:04 | 52 | 96 | 21:27:03 | 96 | 21:57:01 | 95.7 | 0.08 | 4.6 | 17 | 0 | 66 | 66 | 67 | 67 |
| 05/01/2026 | 23:00:00 | 121 | 52 | 22:00:03 | 52 | 22:45:01 | 52 | 96 | 22:01:03 | 94 | 22:51:02 | 94.5 | 0 | 5.3 | 22 | 0 | 66 | 66 | 67 | 67 |
| 05/02/2026 | 0:00:00 | 122 | 52 | 23:08:02 | 52 | 23:57:04 | 52 | 95 | 23:58:05 | 94 | 23:15:02 | 94.7 | 0.1 | 5.3 | 13 | 0 | 66 | 66 | 67 | 67 |
| 05/02/2026 | 1:00:00 | 122 | 52 | 0:59:04 | 52 | 0:06:01 | 52 | 95 | 0:49:04 | 95 | 0:00:05 | 95.2 | 0.1 | 4.6 | 6 | 0 | 65 | 65 | 67 | 67 |
| 05/02/2026 | 2:00:00 | 122 | 53 | 1:40:00 | 52 | 1:01:04 | 53 | 95 | 1:00:00 | 95 | 1:39:01 | 95 | 0.03 | 5.3 | 9 | 0 | 65 | 65 | 67 | 66 |
| 05/02/2026 | 3:00:00 | 122 | 53 | 2:56:04 | 52 | 2:06:05 | 53 | 95 | 2:11:05 | 95 | 2:58:03 | 94.7 | 0.02 | 5.1 | 8 | 0 | 65 | 65 | 66 | 66 |
| 05/02/2026 | 4:00:00 | 122 | 53 | 3:33:04 | 52 | 3:57:05 | 52 | 95 | 3:00:02 | 92 | 3:54:03 | 92.3 | 0.05 | 5.3 | 16 | 0 | 65 | 65 | 66 | 66 |
| 05/02/2026 | 5:00:00 | 122 | 52 | 4:00:00 | 52 | 4:29:03 | 52 | 93 | 4:22:00 | 92 | 4:54:05 | 92 | 0.02 | 4.6 | 9 | 0 | 65 | 65 | 66 | 66 |
| 05/02/2026 | 6:00:00 | 122 | 53 | 5:59:05 | 52 | 5:02:00 | 53 | 93 | 5:59:03 | 92 | 5:14:00 | 93.3 | 0 | 2.6 | 25 | 1 | 65 | 65 | 66 | 66 |
| 05/02/2026 | 7:00:00 | 122 | 54 | 6:55:04 | 52 | 6:01:02 | 54 | 94 | 6:42:02 | 93 | 6:01:01 | 93.9 | 0 | 3.0 | 357 | 5 | 65 | 65 | 66 | 66 |
| 05/02/2026 | 8:00:00 | 122 | 58 | 7:59:05 | 54 | 7:00:00 | 58 | 94 | 7:05:04 | 88 | 7:59:03 | 88.4 | 0 | 5.1 | 350 | 22 | 65 | 65 | 66 | 66 |
| 05/02/2026 | 9:00:00 | 122 | 62 | 8:57:05 | 58 | 8:05:00 | 62 | 89 | 8:00:01 | 75 | 8:58:02 | 76.54 | 0 | 5.4 | 4 | 45 | 66 | 66 | 66 | 66 |
| 05/02/2026 | 10:00:00 | 122 | 66 | 9:50:00 | 62 | 9:01:04 | 65 | 78 | 9:02:04 | 63 | 9:56:01 | 64.07 | 0 | 6.3 | 358 | 64 | 66 | 67 | 66 | 67 |
| 05/02/2026 | 11:00:00 | 122 | 68 | 10:54:02 | 65 | 10:00:00 | 68 | 68 | 10:05:02 | 51 | 10:55:05 | 52.42 | 0 | 7.3 | 359 | 71 | 67 | 68 | 67 | 67 |
| 05/02/2026 | 12:00:00 | 122 | 69 | 11:45:02 | 67 | 11:08:02 | 69 | 55 | 11:12:02 | 42 | 11:51:05 | 43.6 | 0 | 7.5 | 1 | 79 | 68 | 69 | 67 | 68 |
| 05/02/2026 | 13:00:00 | 122 | 71 | 12:39:00 | 69 | 12:18:03 | 70 | 46 | 12:02:02 | 33 | 12:54:00 | 38.14 | 0 | 8.1 | 360 | 80 | 69 | 69 | 68 | 68 |
| 05/02/2026 | 14:00:00 | 122 | 72 | 13:52:01 | 70 | 13:02:04 | 71 | 42 | 13:23:02 | 34 | 13:01:05 | 37.54 | 0 | 7.2 | 0 | 74 | 69 | 70 | 69 | 69 |
| 05/02/2026 | 15:00:00 | 122 | 72 | 14:43:02 | 71 | 14:03:05 | 72 | 41 | 14:06:03 | 33 | 14:59:04 | 34.68 | 0 | 8.0 | 350 | 64 | 70 | 70 | 69 | 69 |
| 05/02/2026 | 16:00:00 | 122 | 73 | 15:07:02 | 71 | 15:14:02 | 72 | 40 | 15:54:00 | 33 | 15:00:04 | 37.86 | 0 | 6.9 | 347 | 49 | 70 | 70 | 69 | 69 |
| 05/02/2026 | 17:00:00 | 122 | 72 | 16:06:00 | 71 | 16:59:05 | 71 | 41 | 16:50:04 | 35 | 16:06:01 | 38.29 | 0 | 5.8 | 356 | 32 | 70 | 70 | 69 | 69 |
| 05/02/2026 | 18:00:00 | 122 | 71 | 17:05:04 | 68 | 17:59:04 | 69 | 44 | 17:59:00 | 37 | 17:28:00 | 42.96 | 0 | 4.8 | 352 | 12 | 69 | 69 | 69 | 69 |
| 05/02/2026 | 19:00:00 | 122 | 69 | 18:00:01 | 61 | 18:59:05 | 61 | 60 | 19:00:00 | 42 | 18:01:01 | 59.93 | 0 | 1.9 | 342 | 2 | 69 | 69 | 69 | 69 |
| 05/02/2026 | 20:00:00 | 122 | 61 | 19:00:00 | 60 | 19:55:05 | 60 | 63 | 19:08:03 | 59 | 19:47:05 | 60.02 | 0 | 1.4 | 345 | 0 | 68 | 68 | 69 | 69 |
| 05/02/2026 | 21:00:00 | 122 | 60 | 20:12:03 | 58 | 20:43:05 | 58 | 66 | 20:51:04 | 59 | 20:11:03 | 65.03 | 0 | 1.6 | 345 | 0 | 68 | 67 | 68 | 68 |
| 05/02/2026 | 22:00:00 | 122 | 59 | 21:06:00 | 57 | 21:43:05 | 57 | 65 | 21:38:00 | 61 | 21:54:02 | 63.59 | 0 | 1.8 | 342 | 0 | 67 | 67 | 68 | 68 |
| 05/02/2026 | 23:00:00 | 122 | 57 | 22:01:02 | 55 | 22:48:02 | 55 | 70 | 22:47:05 | 63 | 22:00:05 | 67.32 | 0 | 1.9 | 341 | 0 | 67 | 66 | 67 | 67 |
| 05/03/2026 | 0:00:00 | 123 | 56 | 23:07:03 | 53 | 23:50:05 | 53 | 73 | 23:49:04 | 66 | 23:07:01 | 71.76 | 0 | 1.6 | 339 | 0 | 66 | 66 | 67 | 67 |
| 05/03/2026 | 1:00:00 | 123 | 53 | 0:00:00 | 50 | 0:59:02 | 50 | 81 | 0:50:05 | 72 | 0:00:00 | 79.75 | 0 | 0.6 | 325 | 0 | 66 | 65 | 67 | 67 |
| 05/03/2026 | 2:00:00 | 123 | 50 | 1:17:03 | 48 | 1:59:01 | 48 | 87 | 1:59:05 | 79 | 1:01:02 | 86.9 | 0 | 0.5 | 339 | 0 | 65 | 65 | 66 | 66 |
| 05/03/2026 | 3:00:00 | 123 | 48 | 2:00:03 | 46 | 2:58:04 | 46 | 91 | 3:00:00 | 87 | 2:00:00 | 91.3 | 0 | 0.0 | 0 | 0 | 65 | 64 | 66 | 66 |
| 05/03/2026 | 4:00:00 | 123 | 47 | 3:25:03 | 46 | 3:51:00 | 46 | 93 | 3:22:01 | 91 | 3:39:03 | 91.7 | 0 | 0.2 | 356 | 0 | 64 | 64 | 66 | 65 |
| 05/03/2026 | 5:00:00 | 123 | 46 | 4:22:03 | 45 | 4:44:00 | 46 | 93 | 4:46:04 | 92 | 4:00:02 | 92.6 | 0 | 0.6 | 338 | 0 | 64 | 64 | 65 | 65 |
| 05/03/2026 | 6:00:00 | 123 | 50 | 5:59:05 | 46 | 5:10:00 | 50 | 93 | 5:34:04 | 91 | 6:00:00 | 91.1 | 0 | 0.7 | 336 | 4 | 64 | 63 | 65 | 65 |
| 05/03/2026 | 7:00:00 | 123 | 60 | 6:59:04 | 50 | 6:00:01 | 60 | 91 | 6:00:00 | 69 | 7:00:00 | 68.98 | 0 | 1.1 | 340 | 19 | 64 | 64 | 65 | 65 |
| 05/03/2026 | 8:00:00 | 123 | 65 | 7:57:00 | 60 | 7:00:00 | 65 | 69 | 7:02:00 | 47 | 7:57:02 | 48.47 | 0 | 2.5 | 360 | 36 | 64 | 64 | 65 | 65 |
| 05/03/2026 | 9:00:00 | 123 | 69 | 8:54:05 | 65 | 8:15:04 | 68 | 53 | 8:18:00 | 38 | 8:55:00 | 38.48 | 0 | 3.8 | 19 | 53 | 65 | 65 | 65 | 65 |
| 05/03/2026 | 10:00:00 | 123 | 71 | 9:54:02 | 68 | 9:00:00 | 70 | 44 | 9:02:05 | 34 | 9:51:04 | 42.1 | 0 | 3.2 | 31 | 66 | 66 | 66 | 66 | 66 |
| 05/03/2026 | 11:00:00 | 123 | 72 | 10:55:04 | 70 | 10:00:00 | 72 | 45 | 10:13:04 | 36 | 10:29:00 | 37.46 | 0 | 3.6 | 343 | 76 | 67 | 68 | 66 | 66 |
| 05/03/2026 | 12:00:00 | 123 | 74 | 11:55:05 | 71 | 11:02:02 | 73 | 44 | 11:18:04 | 35 | 11:28:03 | 38.05 | 0 | 3.7 | 308 | 81 | 68 | 69 | 67 | 67 |
| 05/03/2026 | 13:00:00 | 123 | 74 | 12:52:05 | 72 | 12:17:00 | 74 | 44 | 12:49:05 | 33 | 12:29:01 | 40.34 | 0 | 3.9 | 340 | 79 | 69 | 70 | 68 | 68 |
| 05/03/2026 | 14:00:00 | 123 | 75 | 13:45:00 | 73 | 13:02:02 | 75 | 45 | 13:02:04 | 34 | 13:12:03 | 40.65 | 0 | 3.7 | 336 | 73 | 70 | 71 | 68 | 69 |
| 05/03/2026 | 15:00:00 | 123 | 76 | 14:24:03 | 74 | 14:50:02 | 75 | 42 | 14:03:04 | 32 | 14:41:00 | 37.4 | 0 | 3.8 | 308 | 63 | 71 | 71 | 69 | 69 |
| 05/03/2026 | 16:00:00 | 123 | 77 | 15:34:04 | 75 | 15:03:04 | 75 | 42 | 15:04:04 | 33 | 15:35:01 | 34.63 | 0 | 3.2 | 313 | 49 | 71 | 71 | 70 | 70 |
| 05/03/2026 | 17:00:00 | 123 | 77 | 16:39:05 | 75 | 17:00:00 | 75 | 41 | 16:09:00 | 34 | 17:00:00 | 34.31 | 0 | 3.0 | 352 | 32 | 71 | 71 | 70 | 70 |
| 05/03/2026 | 18:00:00 | 123 | 75 | 17:29:03 | 72 | 18:00:00 | 72 | 54 | 17:57:00 | 35 | 17:00:00 | 50.67 | 0 | 1.3 | 308 | 12 | 71 | 70 | 70 | 70 |
| 05/03/2026 | 19:00:00 | 123 | 72 | 18:00:00 | 62 | 18:59:04 | 62 | 67 | 18:59:04 | 48 | 18:07:03 | 67.43 | 0 | 0.1 | 292 | 1 | 70 | 70 | 70 | 70 |
| 05/03/2026 | 20:00:00 | 123 | 63 | 19:27:04 | 59 | 19:58:05 | 59 | 77 | 19:58:02 | 64 | 19:24:01 | 76.18 | 0 | 0.1 | 288 | 0 | 69 | 69 | 69 | 69 |
| 05/03/2026 | 21:00:00 | 123 | 60 | 20:21:04 | 57 | 20:29:01 | 58 | 84 | 20:33:05 | 74 | 20:19:00 | 78.42 | 0 | 0.6 | 129 | 0 | 68 | 68 | 69 | 69 |
| 05/03/2026 | 22:00:00 | 123 | 58 | 21:00:05 | 56 | 21:52:02 | 57 | 84 | 21:55:05 | 77 | 21:01:00 | 80.6 | 0 | 0.2 | 125 | 0 | 68 | 68 | 68 | 68 |
| 05/03/2026 | 23:00:00 | 123 | 57 | 22:01:01 | 55 | 22:40:05 | 55 | 85 | 23:00:00 | 79 | 22:02:04 | 85.1 | 0 | 0.1 | 135 | 0 | 67 | 67 | 68 | 68 |
| 05/04/2026 | 0:00:00 | 124 | 58 | 0:00:00 | 55 | 23:29:03 | 58 | 88 | 23:12:04 | 77 | 0:00:00 | 77.16 | 0 | 0.4 | 141 | 0 | 67 | 67 | 68 | 67 |
| 05/04/2026 | 1:00:00 | 124 | 58 | 0:03:01 | 54 | 1:00:00 | 54 | 83 | 0:39:04 | 75 | 0:04:03 | 81.8 | 0 | 0.4 | 136 | 0 | 66 | 66 | 67 | 67 |
| 05/04/2026 | 2:00:00 | 124 | 55 | 1:54:03 | 53 | 1:43:05 | 54 | 90 | 1:46:02 | 82 | 1:00:00 | 85.3 | 0 | 0.1 | 189 | 0 | 66 | 66 | 67 | 67 |
| 05/04/2026 | 3:00:00 | 124 | 56 | 2:40:02 | 53 | 2:55:00 | 53 | 89 | 3:00:00 | 81 | 2:42:02 | 89.3 | 0 | 0.2 | 174 | 0 | 66 | 65 | 67 | 66 |
| 05/04/2026 | 4:00:00 | 124 | 54 | 3:05:05 | 52 | 3:46:05 | 52 | 91 | 3:54:03 | 86 | 3:12:00 | 88.9 | 0 | 0.2 | 290 | 0 | 65 | 65 | 66 | 66 |
| 05/04/2026 | 5:00:00 | 124 | 56 | 5:00:00 | 51 | 4:13:02 | 56 | 93 | 4:30:04 | 79 | 4:59:03 | 79.35 | 0 | 0.7 | 237 | 0 | 65 | 65 | 66 | 66 |
| 05/04/2026 | 6:00:00 | 124 | 57 | 5:54:01 | 53 | 5:21:01 | 56 | 87 | 5:25:00 | 78 | 5:05:00 | 79.97 | 0 | 0.3 | 254 | 3 | 65 | 65 | 66 | 66 |
| 05/04/2026 | 7:00:00 | 124 | 64 | 6:59:04 | 56 | 6:00:00 | 64 | 80 | 6:00:05 | 65 | 6:58:00 | 66.58 | 0 | 1.7 | 285 | 18 | 65 | 65 | 66 | 66 |
| 05/04/2026 | 8:00:00 | 124 | 67 | 8:00:00 | 64 | 7:01:04 | 67 | 68 | 7:16:04 | 57 | 7:53:05 | 59.53 | 0 | 2.9 | 279 | 36 | 65 | 65 | 66 | 66 |
| 05/04/2026 | 9:00:00 | 124 | 70 | 8:58:04 | 67 | 8:04:02 | 70 | 60 | 8:36:01 | 52 | 8:53:01 | 53.23 | 0 | 3.8 | 293 | 53 | 66 | 66 | 66 | 66 |
| 05/04/2026 | 10:00:00 | 124 | 73 | 9:55:04 | 70 | 9:01:01 | 73 | 58 | 9:05:02 | 46 | 9:57:03 | 49.54 | 0 | 3.0 | 233 | 66 | 67 | 67 | 66 | 66 |
| 05/04/2026 | 11:00:00 | 124 | 76 | 10:30:02 | 73 | 10:03:00 | 74 | 50 | 10:12:05 | 36 | 10:49:03 | 42.37 | 0 | 4.2 | 180 | 76 | 68 | 68 | 67 | 67 |
| 05/04/2026 | 12:00:00 | 124 | 77 | 11:48:01 | 74 | 11:01:04 | 76 | 46 | 11:10:00 | 35 | 11:48:05 | 37.17 | 0 | 3.9 | 200 | 80 | 69 | 70 | 68 | 68 |
| 05/04/2026 | 13:00:00 | 124 | 78 | 12:53:00 | 76 | 12:03:03 | 77 | 45 | 12:02:02 | 35 | 12:07:02 | 39.6 | 0 | 4.7 | 199 | 79 | 70 | 71 | 68 | 69 |
| 05/04/2026 | 14:00:00 | 124 | 79 | 13:29:04 | 75 | 13:49:00 | 78 | 47 | 13:15:02 | 36 | 13:57:03 | 37.9 | 0 | 5.2 | 212 | 66 | 71 | 71 | 69 | 70 |
| 05/04/2026 | 15:00:00 | 124 | 79 | 14:18:03 | 77 | 14:56:04 | 78 | 44 | 14:07:04 | 34 | 14:23:05 | 36.83 | 0 | 5.7 | 187 | 62 | 71 | 71 | 70 | 70 |
| 05/04/2026 | 16:00:00 | 124 | 78 | 15:05:00 | 76 | 15:59:05 | 76 | 41 | 15:02:01 | 34 | 15:27:02 | 38.18 | 0 | 5.4 | 208 | 49 | 71 | 71 | 70 | 70 |
| 05/04/2026 | 17:00:00 | 124 | 77 | 16:10:02 | 75 | 16:59:04 | 75 | 43 | 16:58:03 | 35 | 16:20:02 | 41.98 | 0 | 4.8 | 194 | 32 | 71 | 71 | 70 | 70 |
| 05/04/2026 | 18:00:00 | 124 | 75 | 17:05:04 | 72 | 17:59:05 | 72 | 46 | 18:00:00 | 39 | 17:16:02 | 46.04 | 0 | 4.1 | 183 | 13 | 71 | 70 | 70 | 70 |
| 05/04/2026 | 19:00:00 | 124 | 72 | 18:00:00 | 66 | 18:58:04 | 66 | 59 | 18:58:02 | 45 | 18:05:01 | 58 | 0 | 3.9 | 164 | 1 | 70 | 70 | 70 | 70 |
| 05/04/2026 | 20:00:00 | 124 | 66 | 19:03:03 | 64 | 19:59:05 | 64 | 68 | 19:59:04 | 58 | 19:04:00 | 68.15 | 0 | 3.0 | 145 | 0 | 69 | 69 | 69 | 69 |
| 05/04/2026 | 21:00:00 | 124 | 64 | 20:00:00 | 62 | 20:38:00 | 63 | 74 | 20:38:02 | 68 | 20:00:01 | 71.79 | 0 | 2.7 | 148 | 0 | 69 | 69 | 69 | 69 |
| 05/04/2026 | 22:00:00 | 124 | 63 | 21:00:01 | 61 | 21:59:05 | 61 | 76 | 22:00:00 | 72 | 21:01:04 | 75.71 | 0 | 3.1 | 153 | 0 | 69 | 68 | 69 | 69 |
| 05/04/2026 | 23:00:00 | 124 | 61 | 22:05:00 | 59 | 22:56:04 | 60 | 80 | 22:57:03 | 76 | 22:00:01 | 79.57 | 0 | 1.9 | 162 | 0 | 68 | 68 | 69 | 68 |
| 05/05/2026 | 0:00:00 | 125 | 60 | 23:00:01 | 57 | 23:52:02 | 57 | 88 | 23:59:05 | 79 | 23:00:04 | 88.2 | 0 | 0.0 | 146 | 0 | 68 | 68 | 68 | 68 |
| 05/05/2026 | 1:00:00 | 125 | 58 | 0:14:03 | 56 | 0:37:04 | 56 | 90 | 0:43:00 | 85 | 0:19:04 | 89.9 | 0 | 0.1 | 87 | 0 | 67 | 67 | 68 | 68 |
| 05/05/2026 | 2:00:00 | 125 | 56 | 1:00:01 | 55 | 1:58:03 | 55 | 93 | 1:50:04 | 90 | 1:00:04 | 92.4 | 0 | 0.0 | 0 | 0 | 67 | 67 | 68 | 67 |
| 05/05/2026 | 3:00:00 | 125 | 56 | 3:00:00 | 55 | 2:23:04 | 56 | 93 | 2:29:05 | 92 | 2:51:05 | 92.6 | 0 | 0.0 | 96 | 0 | 67 | 67 | 67 | 67 |
| 05/05/2026 | 4:00:00 | 125 | 57 | 3:52:02 | 55 | 3:15:01 | 57 | 93 | 3:00:02 | 89 | 3:57:04 | 89.3 | 0 | 0.1 | 123 | 0 | 66 | 66 | 67 | 67 |
| 05/05/2026 | 5:00:00 | 125 | 59 | 4:57:01 | 57 | 4:00:00 | 58 | 90 | 4:05:02 | 87 | 5:00:00 | 86.7 | 0 | 0.7 | 118 | 0 | 66 | 66 | 67 | 67 |
| 05/05/2026 | 6:00:00 | 125 | 60 | 6:00:00 | 57 | 5:11:04 | 60 | 89 | 5:15:03 | 87 | 5:00:00 | 87.4 | 0 | 1.1 | 151 | 2 | 66 | 66 | 67 | 67 |
| 05/05/2026 | 7:00:00 | 125 | 66 | 7:00:00 | 60 | 6:00:00 | 66 | 87 | 6:00:01 | 79 | 6:54:01 | 79.58 | 0 | 3.0 | 159 | 12 | 66 | 66 | 67 | 67 |
| 05/05/2026 | 8:00:00 | 125 | 71 | 7:59:05 | 65 | 7:00:01 | 71 | 81 | 7:00:05 | 70 | 7:58:00 | 71.8 | 0 | 4.6 | 161 | 27 | 67 | 67 | 67 | 67 |
| 05/05/2026 | 9:00:00 | 125 | 74 | 8:56:05 | 71 | 8:00:00 | 74 | 73 | 8:00:03 | 67 | 8:57:03 | 67.82 | 0 | 5.7 | 175 | 40 | 67 | 68 | 67 | 67 |
| 05/05/2026 | 10:00:00 | 125 | 77 | 9:48:01 | 74 | 9:11:04 | 76 | 71 | 9:24:03 | 63 | 9:55:04 | 64.06 | 0 | 6.1 | 188 | 52 | 68 | 68 | 67 | 68 |
| 05/05/2026 | 11:00:00 | 125 | 79 | 11:00:00 | 76 | 10:00:05 | 79 | 68 | 10:08:05 | 58 | 10:54:00 | 62.23 | 0 | 6.8 | 181 | 66 | 69 | 69 | 68 | 68 |
| 05/05/2026 | 12:00:00 | 125 | 81 | 11:54:01 | 78 | 11:25:02 | 81 | 65 | 11:04:00 | 55 | 11:54:05 | 57.62 | 0 | 6.4 | 178 | 74 | 70 | 71 | 69 | 69 |
| 05/05/2026 | 13:00:00 | 125 | 82 | 12:59:03 | 80 | 12:09:00 | 82 | 62 | 12:49:03 | 54 | 12:03:00 | 56.44 | 0 | 6.6 | 176 | 66 | 71 | 72 | 70 | 70 |
| 05/05/2026 | 14:00:00 | 125 | 83 | 13:14:05 | 80 | 13:33:04 | 82 | 61 | 13:34:03 | 52 | 13:53:01 | 56.98 | 0 | 7.5 | 176 | 63 | 72 | 72 | 70 | 70 |
| 05/05/2026 | 15:00:00 | 125 | 82 | 14:02:02 | 80 | 14:51:04 | 82 | 64 | 14:56:00 | 53 | 14:04:00 | 61.89 | 0 | 7.0 | 168 | 39 | 72 | 72 | 71 | 71 |
| 05/05/2026 | 16:00:00 | 125 | 82 | 15:01:04 | 77 | 15:57:02 | 77 | 70 | 15:58:00 | 60 | 15:02:03 | 69.8 | 0 | 7.1 | 157 | 25 | 72 | 72 | 71 | 71 |
| 05/05/2026 | 17:00:00 | 125 | 78 | 16:09:02 | 75 | 16:59:03 | 75 | 74 | 17:00:00 | 69 | 16:01:01 | 74.45 | 0 | 8.3 | 151 | 15 | 72 | 72 | 71 | 71 |
| 05/05/2026 | 18:00:00 | 125 | 75 | 17:03:02 | 74 | 17:59:05 | 74 | 78 | 17:59:00 | 74 | 17:05:01 | 78.16 | 0 | 7.1 | 149 | 5 | 72 | 71 | 71 | 71 |
| 05/05/2026 | 19:00:00 | 125 | 74 | 18:00:01 | 72 | 18:58:01 | 72 | 83 | 18:59:03 | 78 | 18:00:00 | 82.5 | 0 | 5.7 | 151 | 1 | 71 | 71 | 71 | 71 |
| 05/05/2026 | 20:00:00 | 125 | 72 | 19:00:01 | 71 | 19:56:02 | 71 | 86 | 19:58:01 | 83 | 19:00:00 | 85.8 | 0 | 4.8 | 152 | 0 | 71 | 71 | 71 | 71 |
| 05/05/2026 | 21:00:00 | 125 | 71 | 20:04:02 | 70 | 21:00:00 | 70 | 89 | 20:59:05 | 85 | 20:06:02 | 88.8 | 0 | 3.6 | 142 | 0 | 71 | 71 | 70 | 70 |
| 05/05/2026 | 22:00:00 | 125 | 70 | 21:00:03 | 69 | 21:39:04 | 70 | 92 | 21:48:02 | 89 | 21:03:04 | 91.2 | 0 | 4.6 | 151 | 0 | 70 | 70 | 70 | 70 |
| 05/05/2026 | 23:00:00 | 125 | 70 | 22:19:03 | 69 | 22:25:01 | 70 | 93 | 23:00:00 | 91 | 22:03:00 | 92.7 | 0 | 5.4 | 160 | 0 | 70 | 70 | 70 | 70 |
| 05/06/2026 | 0:00:00 | 126 | 70 | 23:55:02 | 70 | 23:00:00 | 70 | 93 | 23:29:00 | 93 | 23:02:02 | 93 | 0 | 6.1 | 161 | 0 | 70 | 70 | 70 | 70 |
| 05/06/2026 | 1:00:00 | 126 | 71 | 0:54:05 | 70 | 0:02:00 | 71 | 93 | 0:02:05 | 92 | 0:59:05 | 92 | 0 | 5.9 | 170 | 0 | 70 | 70 | 70 | 70 |
| 05/06/2026 | 2:00:00 | 126 | 71 | 1:22:00 | 70 | 1:57:00 | 71 | 92 | 1:57:02 | 92 | 1:37:03 | 91.8 | 0 | 5.7 | 175 | 0 | 70 | 70 | 70 | 70 |
| 05/06/2026 | 3:00:00 | 126 | 71 | 2:00:02 | 70 | 2:52:04 | 70 | 93 | 2:58:05 | 92 | 2:00:02 | 93.1 | 0 | 4.7 | 188 | 0 | 70 | 70 | 70 | 70 |
| 05/06/2026 | 4:00:00 | 126 | 70 | 3:59:02 | 70 | 3:17:03 | 70 | 93 | 3:21:01 | 93 | 3:59:01 | 92.9 | 0 | 3.7 | 188 | 0 | 70 | 70 | 70 | 70 |
| Average | 66.62 | 64.54 | 65.57 | 80.25 | 74.51 | 77.32 | 0.03 | 3.5 | 17.74 | 69.42 | 69.42 | 69.46 | 69.43 | |||||||
| Total | 5.12 |